• Join FlightAware (Why Join?)
  • Login
  • US Flag 
02:58PM EDT


 

Airport Tracker/Info


-or-


 

Live Flight TrackerFlight Track Log ✈ AWI3970 ✈ 31-May-2013 ✈ KPHL - KALB

Flight Track Log - Related Links

Times and Time Zones

All times are in EDT time to prevent confusion due to time zone crossing. See the AWI3970 flight status page for this flight to view local times or setup timezone preferences in your user account.

Time Position Orientation Groundspeed Altitude Reporting Facility
EDT Latitude Longitude Course Direction KTS MPH feet Rate Location/Type
11:04PM 39.8667 -75.2333 North 150 173 600  Level Philadelphia TRACON
11:05PM 39.8333 -75.2167 159° South 174 200 2,100 1,860 Climbing Philadelphia TRACON
11:06PM 39.7667 -75.2167 180° South 252 290 4,400 2,220 Climbing Philadelphia TRACON
11:07PM 39.8158 -74.8625 105° East  Level FlightAware Approximate
11:08PM 39.7908 -74.7373 105° East  Level FlightAware Approximate
11:09PM 39.8387 -74.6447 37° Northeast  Level FlightAware Approximate
11:09PM 39.7733 -74.9897 88° East 301 346 9,800  Level New York Center
11:10PM 39.9177 -74.5667 North  Level FlightAware Approximate
11:10PM 39.7817 -74.8714 85° East 295 339 11,800  Level New York Center
11:11PM 39.7900 -74.7475 85° East 309 356 13,300 1,620 Climbing New York Center
11:12PM 39.8517 -74.6539 49° Northeast 317 365 15,100 1,740 Climbing New York Center
11:13PM 39.9333 -74.5797 35° Northeast 324 373 16,800 1,500 Climbing New York Center
11:14PM 40.0169 -74.5031 35° Northeast 341 392 18,100 1,200 Climbing New York Center
11:15PM 40.0969 -74.4178 39° Northeast 370 426 19,300 1,500 Climbing New York Center
11:16PM 40.1828 -74.3353 36° Northeast 375 432 21,100 1,500 Climbing New York Center
11:17PM 40.2664 -74.2553 36° Northeast 375 432 22,300 1,200 Climbing New York Center
11:18PM 40.3481 -74.1669 39° Northeast 375 432 23,600 780 Climbing New York Center
11:19PM 40.4339 -74.0811 37° Northeast 375 432 24,000 180 Climbing New York Center
11:20PM 40.5256 -74.0119 30° Northeast 375 432 24,000  Level New York Center
11:22PM 40.7214 -73.9106 21° North 411 473 24,000  Level Boston Center
11:23PM 40.8331 -73.8172 32° Northeast 392 451 24,000  Level Boston Center
11:24PM 40.9319 -73.7533 26° Northeast 385 443 24,000 -360 Level Boston Center
11:25PM 41.0464 -73.7583 358° North 390 449 23,400 -540 Descending Boston Center
11:26PM 41.1672 -73.7608 359° North 402 463 23,000 -300 Descending Boston Center
11:27PM 41.2819 -73.7633 359° North 413 475 22,900 -600 Descending Boston Center
11:28PM 41.4006 -73.7656 359° North 413 475 21,900 -1,140 Descending Boston Center
11:29PM 41.5153 -73.7681 359° North 419 482 20,700 -1,200 Descending Boston Center
11:30PM 41.6236 -73.7703 359° North 405 466 19,500 -1,200 Descending Boston Center
11:31PM 41.7089 -73.7722 359° North 364 419 18,400 -1,200 Descending Boston Center
11:32PM 41.8153 -73.7769 358° North 344 396 17,200 -1,140 Descending Boston Center
11:33PM 41.8986 -73.7789 359° North 339 390 16,200 -1,260 Descending Boston Center
11:33PM 41.9736 -73.7833 357° North 329 379 15,100 -1,320 Descending Boston Center
11:34PM 41.9986 -73.7811 North 334 384 14,900 -1,260 Descending Boston Center
11:35PM 42.0964 -73.7858 358° North 327 376 13,500 -1,500 Descending Boston Center
11:36PM 42.1925 -73.7822 North 342 394 12,000 -1,440 Descending Boston Center
11:37PM 42.2758 -73.7731 North 327 376 10,700 -1,560 Descending Boston Center
11:37PM 42.2967 -73.7733 359° North 289 333 10,100 -1,920 Descending Boston Center
11:38PM 42.3803 -73.7611 North 291 335 8,300 -1,800 Descending Boston Center
11:39PM 42.4575 -73.7542 North 293 337 6,500 -1,800 Descending Boston Center
11:40PM 42.5347 -73.7475 North 276 318 4,700 -1,320 Descending Boston Center
11:41PM 42.6078 -73.7350 North 264 304 3,900 -360 Descending Boston Center
11:42PM 42.6828 -73.7281 North 242 278 4,000 -480 Climbing Boston Center
11:43PM 42.7433 -73.7236 North 215 247 3,000 -1,200 Descending Boston Center
11:44PM 42.8039 -73.7192 North 221 254 1,700 -1,320 Descending Boston Center